createdAt,value
2018-08-18T00:47:26.344Z,2.60
2018-08-18T00:52:29.701Z,2.83
2018-08-18T00:57:33.054Z,2.13
2018-08-18T02:34:40.643Z,3.93
2018-08-18T02:39:43.966Z,3.87
2018-08-18T02:44:47.295Z,5.00
2018-08-18T03:47:22.118Z,4.00
2018-08-18T03:52:25.507Z,3.60
2018-08-18T03:57:28.798Z,3.80
2018-08-18T05:05:49.919Z,10.07
2018-08-18T05:10:53.267Z,8.63
2018-08-18T05:16:07.002Z,9.87
2018-08-18T05:21:10.332Z,9.00
2018-08-18T05:26:14.684Z,10.83
2018-08-18T05:31:18.019Z,10.20
2018-08-18T05:53:15.986Z,9.60
2018-08-18T05:58:19.309Z,9.50
2018-08-18T06:03:22.638Z,10.70
2018-08-18T06:08:25.967Z,9.97
2018-08-18T06:13:30.067Z,9.50
2018-08-18T06:18:33.778Z,9.67
2018-08-18T06:23:37.231Z,11.47
2018-08-18T06:28:40.573Z,10.77
2018-08-18T06:33:43.903Z,9.53
2018-08-18T06:38:47.234Z,11.87
2018-08-18T06:43:50.577Z,10.70
2018-08-18T06:48:53.904Z,10.50
2018-08-18T06:53:57.998Z,9.37
2018-08-18T06:59:01.335Z,12.03
2018-08-18T07:04:04.674Z,11.33
2018-08-18T07:09:08.007Z,9.70
2018-08-18T07:14:11.333Z,12.37
2018-08-18T07:19:14.714Z,11.27
2018-08-18T07:24:18.023Z,11.60
2018-08-18T07:29:21.360Z,11.10
2018-08-18T07:34:24.699Z,9.93
2018-08-18T07:39:28.046Z,13.47
2018-08-18T07:44:31.511Z,10.03
2018-08-18T07:49:34.874Z,10.33
2018-08-18T07:54:41.641Z,11.93
2018-08-18T07:59:45.077Z,11.00
2018-08-18T08:04:48.363Z,11.70
2018-08-18T08:09:51.827Z,12.03
2018-08-18T08:14:56.106Z,10.97
2018-08-18T08:19:59.471Z,14.47
2018-08-18T08:25:02.989Z,11.37
2018-08-18T08:30:06.322Z,11.23
2018-08-18T08:35:16.083Z,10.37
2018-08-18T08:40:19.624Z,9.57
2018-08-18T08:45:23.506Z,10.23
2018-08-18T08:50:27.745Z,13.67
2018-08-18T08:55:32.410Z,13.80
2018-08-18T09:00:36.123Z,14.40
2018-08-18T09:05:39.864Z,12.90
2018-08-18T09:10:43.656Z,11.20
2018-08-18T09:15:49.220Z,12.13
2018-08-18T09:20:52.816Z,11.00
2018-08-18T09:26:10.022Z,11.43
2018-08-18T09:31:13.638Z,11.67
2018-08-18T09:36:18.275Z,12.53
2018-08-18T09:41:22.719Z,9.70
2018-08-18T09:46:31.667Z,10.10
2018-08-18T09:51:34.989Z,8.93
2018-08-18T09:56:38.338Z,10.20
2018-08-18T10:01:42.431Z,9.30
2018-08-18T10:06:45.774Z,9.53
2018-08-18T10:11:49.870Z,8.87
2018-08-18T10:16:53.199Z,9.93
2018-08-18T10:21:56.529Z,10.00
2018-08-18T10:26:59.862Z,13.20
2018-08-18T10:32:03.179Z,9.83
2018-08-18T10:37:06.519Z,11.90
2018-08-18T10:42:09.907Z,13.70
2018-08-18T10:47:13.244Z,12.33
2018-08-18T10:58:02.292Z,11.10
2018-08-18T11:03:05.633Z,10.63
2018-08-18T11:08:08.969Z,7.90
2018-08-18T11:13:12.298Z,9.10
2018-08-18T11:18:15.623Z,6.37
2018-08-18T11:23:18.953Z,5.20
2018-08-18T11:28:22.364Z,5.80
2018-08-18T11:33:25.851Z,8.03
2018-08-18T11:38:29.176Z,4.53
2018-08-18T11:43:32.519Z,5.73
2018-08-18T11:48:35.844Z,5.07
2018-08-18T11:53:39.934Z,5.60
2018-08-18T11:58:43.258Z,4.50
2018-08-18T12:03:46.608Z,4.43
2018-08-18T12:08:50.298Z,4.83
2018-08-18T12:13:53.956Z,5.20
2018-08-18T12:18:57.610Z,5.33
2018-08-18T12:24:01.181Z,5.37
2018-08-18T12:29:06.424Z,3.60
2018-08-18T12:34:10.053Z,4.50
2018-08-18T12:39:13.716Z,5.17
2018-08-18T12:44:17.335Z,6.87
2018-08-18T12:49:20.861Z,4.87
2018-08-18T12:54:29.162Z,4.77
2018-08-18T12:59:32.702Z,4.27
2018-08-18T13:04:36.228Z,4.03
2018-08-18T13:09:39.770Z,4.37
2018-08-18T13:14:43.509Z,6.27
2018-08-18T13:19:47.011Z,6.50
2018-08-18T13:24:50.602Z,4.70
2018-08-18T13:29:54.288Z,4.03
2018-08-18T13:34:57.922Z,4.63
2018-08-18T13:40:03.074Z,5.97
2018-08-18T13:45:06.665Z,3.47
2018-08-18T13:50:10.298Z,4.73
2018-08-18T13:55:13.790Z,5.20
2018-08-18T14:00:18.276Z,3.90
2018-08-18T14:05:40.044Z,4.70
2018-08-18T14:10:43.662Z,3.50
2018-08-18T14:15:47.261Z,3.70
2018-08-18T14:20:50.903Z,3.43
2018-08-18T14:26:08.433Z,4.57
2018-08-18T14:31:11.963Z,3.63
2018-08-18T14:36:41.183Z,3.10
2018-08-18T14:41:44.514Z,3.23
2018-08-18T14:46:47.857Z,3.03
2018-08-18T14:51:51.957Z,5.97
2018-08-18T14:56:55.285Z,3.37
2018-08-18T15:01:59.526Z,4.55
2018-08-18T15:07:03.185Z,4.40
2018-08-18T15:12:06.819Z,6.30
2018-08-18T15:17:10.450Z,3.45
2018-08-18T15:22:14.106Z,2.97
2018-08-18T15:27:17.640Z,3.95
2018-08-18T15:32:21.254Z,3.65
2018-08-18T15:37:24.809Z,5.03
2018-08-18T15:42:28.515Z,3.97
2018-08-18T15:47:32.117Z,3.42
2018-08-18T15:52:36.079Z,5.05
2018-08-18T15:57:39.613Z,3.55
2018-08-18T16:02:43.234Z,3.78
2018-08-18T16:07:46.799Z,4.35
2018-08-18T16:12:50.470Z,4.05
2018-08-18T16:17:54.049Z,4.35
2018-08-18T16:22:57.704Z,4.55
2018-08-18T16:28:01.326Z,4.45
2018-08-18T16:33:05.378Z,3.90
2018-08-18T16:38:09.972Z,4.47
2018-08-18T16:43:14.563Z,5.07
2018-08-18T16:48:18.683Z,4.03
2018-08-18T16:53:24.546Z,5.97
2018-08-18T16:58:31.322Z,4.37
2018-08-18T17:03:35.660Z,4.18
2018-08-18T17:08:43.846Z,3.62
2018-08-18T17:13:50.366Z,3.90
2018-08-18T17:18:57.193Z,5.93
2018-08-18T17:24:03.833Z,5.43
2018-08-18T17:29:07.840Z,4.93
2018-08-18T17:34:15.383Z,3.42
2018-08-18T17:39:22.990Z,2.83
2018-08-18T17:44:29.633Z,3.60
2018-08-18T17:49:34.345Z,3.97
2018-08-18T17:54:38.832Z,4.65
2018-08-18T17:59:44.675Z,4.12
2018-08-18T18:04:48.383Z,3.97
2018-08-18T18:09:51.989Z,5.32
2018-08-18T18:14:55.477Z,3.95
2018-08-18T18:19:59.047Z,5.25
2018-08-18T18:25:02.638Z,5.82
2018-08-18T18:30:06.201Z,4.53
2018-08-18T18:35:09.970Z,3.53
2018-08-18T18:40:13.343Z,3.73
2018-08-18T18:45:17.167Z,3.95
2018-08-18T18:50:20.722Z,4.70
2018-08-18T18:55:24.350Z,4.33
2018-08-18T19:00:28.209Z,3.47
2018-08-18T19:05:32.823Z,4.40
2018-08-18T19:10:36.650Z,5.40
2018-08-18T19:15:53.409Z,5.63
2018-08-18T19:20:56.967Z,3.67
2018-08-18T19:26:04.390Z,3.97
2018-08-18T19:31:08.023Z,5.33
2018-08-18T19:36:12.722Z,4.87
2018-08-18T19:41:16.369Z,5.73
2018-08-18T19:46:48.261Z,5.73
2018-08-18T19:51:51.801Z,6.47
2018-08-18T19:56:55.287Z,6.20
2018-08-18T20:01:59.674Z,6.87
2018-08-18T20:07:03.357Z,5.30
2018-08-18T20:12:07.779Z,6.80
2018-08-18T20:17:12.310Z,6.77
2018-08-18T20:22:16.090Z,7.50
2018-08-18T20:27:19.873Z,6.87
2018-08-18T20:32:24.648Z,6.73
2018-08-18T20:37:29.690Z,5.47
2018-08-18T20:42:35.486Z,7.20
2018-08-18T20:47:40.407Z,8.27
2018-08-18T20:52:46.980Z,5.90
2018-08-18T20:57:52.064Z,6.80
2018-08-18T21:02:57.960Z,7.07
2018-08-18T21:08:05.311Z,7.50
2018-08-18T21:13:13.136Z,6.40
2018-08-18T21:18:18.928Z,5.57
2018-08-18T21:23:24.647Z,6.00
2018-08-18T21:28:30.401Z,7.23
2018-08-18T21:33:34.520Z,6.63
2018-08-18T21:38:37.855Z,6.57
2018-08-18T21:43:41.202Z,6.77
2018-08-18T21:48:45.211Z,7.63
2018-08-18T21:53:49.307Z,6.83
2018-08-18T21:58:52.810Z,7.43
2018-08-18T22:03:56.159Z,6.60
2018-08-18T22:08:59.488Z,5.30
2018-08-18T22:14:03.586Z,7.50
2018-08-18T22:19:06.906Z,7.87
2018-08-18T22:24:10.257Z,5.63
2018-08-18T22:29:14.354Z,6.37
2018-08-18T22:34:17.675Z,8.00
2018-08-18T22:39:21.014Z,8.73
2018-08-18T22:44:24.363Z,6.33
2018-08-18T22:49:27.691Z,5.80
2018-08-18T22:54:31.025Z,5.43
2018-08-18T22:59:34.357Z,9.20
2018-08-18T23:04:38.451Z,7.20
2018-08-18T23:09:41.801Z,5.77
2018-08-18T23:14:45.900Z,7.00
